createdAt,value
2022-08-22T00:02:09.623Z,100.00
2022-08-22T00:02:47.467Z,96.41
2022-08-22T00:02:47.979Z,100.00
2022-08-22T00:03:07.953Z,100.00
2022-08-22T00:03:12.457Z,100.00
2022-08-22T00:04:57.212Z,100.00
2022-08-22T00:07:46.590Z,100.00
2022-08-22T00:10:25.912Z,100.00
2022-08-22T00:12:58.407Z,100.00
2022-08-22T00:15:43.444Z,100.00
2022-08-22T00:18:18.468Z,100.00
2022-08-22T00:21:16.993Z,100.00
2022-08-22T00:24:00.706Z,100.00
2022-08-22T00:26:30.374Z,100.00
2022-08-22T00:29:03.724Z,100.00
2022-08-22T00:31:40.033Z,100.00
2022-08-22T00:34:32.857Z,100.00
2022-08-22T00:37:04.674Z,100.00
2022-08-22T00:39:46.651Z,100.00
2022-08-22T00:42:31.666Z,100.00
2022-08-22T00:45:20.545Z,100.00
2022-08-22T00:47:56.957Z,100.00
2022-08-22T00:50:38.928Z,100.00
2022-08-22T00:53:37.040Z,100.00
2022-08-22T00:56:24.969Z,100.00
2022-08-22T00:59:31.372Z,100.00
2022-08-22T01:02:14.462Z,100.00
2022-08-22T01:05:02.820Z,100.00
2022-08-22T01:07:51.021Z,100.00
2022-08-22T01:10:39.169Z,100.00
2022-08-22T01:13:39.953Z,100.00
2022-08-22T01:16:25.344Z,100.00
2022-08-22T01:18:52.557Z,100.00
2022-08-22T01:21:51.711Z,100.00
2022-08-22T01:25:02.811Z,100.00
2022-08-22T01:27:59.357Z,100.00
2022-08-22T01:30:39.251Z,100.00
2022-08-22T01:33:36.957Z,100.00
2022-08-22T01:36:12.497Z,100.00
2022-08-22T01:38:58.508Z,100.00
2022-08-22T01:41:46.754Z,100.00
2022-08-22T01:44:32.330Z,100.00
2022-08-22T01:47:36.809Z,100.00
2022-08-22T01:50:26.482Z,100.00
2022-08-22T01:53:05.088Z,100.00
2022-08-22T01:55:52.435Z,100.00
2022-08-22T01:58:27.358Z,100.00
2022-08-22T02:01:08.908Z,100.00
2022-08-22T02:03:40.358Z,100.00
2022-08-22T02:06:17.329Z,100.00
2022-08-22T02:08:57.048Z,100.00
2022-08-22T02:11:48.276Z,100.00
2022-08-22T02:14:33.332Z,100.00
2022-08-22T02:17:26.488Z,100.00
2022-08-22T02:20:20.260Z,100.00
2022-08-22T02:22:53.127Z,100.00
2022-08-22T02:25:28.968Z,100.00
2022-08-22T02:28:15.829Z,100.00
2022-08-22T02:30:50.933Z,100.00
2022-08-22T02:33:47.800Z,100.00
2022-08-22T02:36:31.705Z,100.00
2022-08-22T02:39:18.142Z,100.00
2022-08-22T02:41:49.395Z,100.00
2022-08-22T02:44:22.391Z,100.00
2022-08-22T02:47:07.009Z,100.00
2022-08-22T02:49:43.808Z,100.00
2022-08-22T02:52:18.108Z,100.00
2022-08-22T02:54:55.702Z,100.00
2022-08-22T02:57:58.953Z,100.00
2022-08-22T03:00:32.688Z,100.00
2022-08-22T03:03:14.543Z,100.00
2022-08-22T03:05:50.668Z,100.00
2022-08-22T03:08:21.690Z,100.00
2022-08-22T03:11:14.406Z,100.00
2022-08-22T03:14:10.264Z,100.00
2022-08-22T03:17:03.506Z,100.00
2022-08-22T03:20:00.564Z,100.00
2022-08-22T03:22:36.203Z,100.00
2022-08-22T03:25:42.811Z,100.00
2022-08-22T03:28:18.385Z,100.00
2022-08-22T03:30:57.870Z,100.00
2022-08-22T03:33:31.036Z,100.00
2022-08-22T03:36:06.625Z,100.00
2022-08-22T03:38:33.248Z,100.00
2022-08-22T03:41:03.273Z,100.00
2022-08-22T03:43:57.209Z,100.00
2022-08-22T03:46:35.125Z,100.00
2022-08-22T03:49:24.233Z,100.00
2022-08-22T03:52:13.891Z,100.00
2022-08-22T03:54:43.890Z,100.00
2022-08-22T03:57:32.065Z,100.00
2022-08-22T04:00:11.389Z,100.00
2022-08-22T04:03:14.823Z,100.00
2022-08-22T04:05:56.946Z,100.00
2022-08-22T04:08:26.321Z,100.00
2022-08-22T04:11:09.779Z,100.00
2022-08-22T04:14:04.348Z,100.00
2022-08-22T04:16:43.340Z,100.00
2022-08-22T04:19:32.802Z,100.00
2022-08-22T04:22:02.749Z,100.00
2022-08-22T04:25:07.615Z,100.00
2022-08-22T04:28:03.110Z,100.00
2022-08-22T04:30:44.479Z,100.00
2022-08-22T04:33:49.979Z,100.00
2022-08-22T04:36:23.551Z,100.00
2022-08-22T04:39:13.149Z,100.00
2022-08-22T04:42:00.737Z,100.00
2022-08-22T04:44:37.685Z,100.00
2022-08-22T04:47:31.077Z,100.00
2022-08-22T04:50:16.544Z,100.00
2022-08-22T04:53:07.798Z,100.00
2022-08-22T04:55:46.741Z,100.00
2022-08-22T04:58:22.852Z,100.00
2022-08-22T05:01:26.869Z,100.00
2022-08-22T05:04:03.267Z,100.00
2022-08-22T05:06:35.449Z,100.00
2022-08-22T05:09:05.752Z,100.00
2022-08-22T05:11:35.291Z,100.00
2022-08-22T05:14:07.167Z,100.00
2022-08-22T05:16:39.605Z,100.00
2022-08-22T05:19:28.433Z,100.00
2022-08-22T05:21:58.366Z,100.00
2022-08-22T05:24:40.943Z,100.00
2022-08-22T05:27:16.294Z,100.00
2022-08-22T05:29:48.737Z,100.00
2022-08-22T05:32:26.285Z,100.00
2022-08-22T05:34:59.551Z,100.00
2022-08-22T05:37:41.774Z,100.00
2022-08-22T05:40:10.841Z,100.00
2022-08-22T05:42:38.071Z,100.00
2022-08-22T05:45:11.572Z,100.00
2022-08-22T05:47:44.688Z,100.00
2022-08-22T05:50:13.969Z,100.00
2022-08-22T05:53:08.000Z,100.00
2022-08-22T05:55:57.311Z,100.00
2022-08-22T05:58:38.868Z,100.00
2022-08-22T06:01:14.842Z,100.00
2022-08-22T06:04:07.977Z,100.00
2022-08-22T06:06:41.827Z,100.00
2022-08-22T06:09:24.631Z,100.00
2022-08-22T06:12:16.497Z,100.00
2022-08-22T06:15:11.825Z,100.00
2022-08-22T06:17:48.134Z,100.00
2022-08-22T06:20:26.426Z,100.00
2022-08-22T06:23:00.535Z,100.00
2022-08-22T06:25:37.904Z,100.00
2022-08-22T06:28:09.562Z,100.00
2022-08-22T06:30:39.670Z,100.00
2022-08-22T06:33:16.353Z,100.00
2022-08-22T06:36:11.890Z,100.00
2022-08-22T06:38:53.901Z,100.00
2022-08-22T06:41:22.438Z,100.00
2022-08-22T06:43:54.952Z,100.00
2022-08-22T06:46:26.377Z,100.00
2022-08-22T06:48:56.136Z,100.00
2022-08-22T06:51:29.689Z,100.00
2022-08-22T06:54:01.913Z,100.00
2022-08-22T06:56:35.750Z,100.00
2022-08-22T06:59:07.983Z,100.00
2022-08-22T07:01:45.658Z,100.00
2022-08-22T07:04:12.824Z,100.00
2022-08-22T07:06:44.264Z,100.00
2022-08-22T07:09:32.657Z,100.00
2022-08-22T07:12:03.116Z,100.00
2022-08-22T07:14:41.030Z,100.00
2022-08-22T07:17:15.912Z,100.00
2022-08-22T07:19:54.309Z,100.00
2022-08-22T07:22:32.590Z,100.00
2022-08-22T07:25:09.027Z,100.00
2022-08-22T07:27:45.125Z,100.00
2022-08-22T07:30:27.988Z,100.00
2022-08-22T07:33:25.232Z,100.00
2022-08-22T07:36:01.988Z,100.00
2022-08-22T07:38:45.615Z,100.00
2022-08-22T07:41:12.406Z,100.00
2022-08-22T07:43:47.941Z,100.00
2022-08-22T07:46:14.555Z,100.00
2022-08-22T07:49:12.140Z,100.00
2022-08-22T07:51:45.201Z,96.81
2022-08-22T07:54:17.177Z,95.65
2022-08-22T07:56:57.816Z,91.74
2022-08-22T07:59:27.257Z,90.67
2022-08-22T08:01:57.550Z,89.92
2022-08-22T08:04:30.492Z,85.83
2022-08-22T08:07:00.796Z,83.21
2022-08-22T08:09:33.147Z,82.80
2022-08-22T08:12:02.745Z,79.55
2022-08-22T08:14:31.281Z,80.91
2022-08-22T08:16:57.942Z,78.43
2022-08-22T08:19:25.451Z,80.00
2022-08-22T08:21:55.437Z,77.54
2022-08-22T08:24:43.203Z,74.99
2022-08-22T08:27:36.904Z,74.31
2022-08-22T08:30:16.547Z,73.53
2022-08-22T08:32:48.909Z,70.61
2022-08-22T08:35:23.580Z,72.15
2022-08-22T08:38:09.596Z,69.95
2022-08-22T08:40:56.487Z,71.25
2022-08-22T08:43:51.195Z,69.63
2022-08-22T08:46:55.124Z,69.93
2022-08-22T08:49:35.221Z,70.65
2022-08-22T08:52:26.500Z,65.10
2022-08-22T08:55:40.889Z,59.68
2022-08-22T08:58:29.310Z,59.54
2022-08-22T09:01:11.486Z,57.98
2022-08-22T09:04:15.675Z,59.59
2022-08-22T09:06:56.745Z,57.55
2022-08-22T09:09:46.346Z,58.39
2022-08-22T09:12:52.225Z,56.33
2022-08-22T09:16:05.280Z,55.20
2022-08-22T09:19:20.662Z,55.40
2022-08-22T09:22:14.285Z,54.88
2022-08-22T09:25:06.299Z,54.28
2022-08-22T09:27:38.976Z,53.87
2022-08-22T09:30:11.660Z,55.98
2022-08-22T09:33:06.393Z,56.27
2022-08-22T09:35:38.848Z,54.35
2022-08-22T09:38:20.780Z,53.40
2022-08-22T09:41:00.208Z,52.24
2022-08-22T09:43:46.576Z,52.54
2022-08-22T09:46:32.154Z,53.11
2022-08-22T09:49:13.402Z,52.92
2022-08-22T09:51:50.636Z,52.79
2022-08-22T09:54:33.664Z,51.94
2022-08-22T09:57:00.847Z,53.67
2022-08-22T10:00:05.168Z,53.14
2022-08-22T10:02:44.127Z,53.24
2022-08-22T10:05:40.658Z,51.20
2022-08-22T10:08:31.737Z,51.91
2022-08-22T10:11:13.536Z,51.95
2022-08-22T10:14:22.273Z,50.75
2022-08-22T10:17:08.147Z,50.93
2022-08-22T10:20:14.039Z,50.34
2022-08-22T10:23:00.853Z,54.01
2022-08-22T10:25:42.111Z,51.51
2022-08-22T10:28:25.184Z,51.29
2022-08-22T10:31:09.873Z,48.53
2022-08-22T10:33:47.469Z,48.02
2022-08-22T10:36:21.006Z,47.00
2022-08-22T10:38:57.861Z,46.20
2022-08-22T10:41:58.705Z,48.42
2022-08-22T10:44:34.645Z,49.07
2022-08-22T10:47:13.609Z,48.54
2022-08-22T10:49:52.148Z,48.53
2022-08-22T10:52:26.972Z,49.20
2022-08-22T10:55:09.739Z,50.66
2022-08-22T10:57:52.131Z,49.30
2022-08-22T11:00:46.609Z,48.22
2022-08-22T11:03:28.245Z,46.93
2022-08-22T11:06:00.517Z,46.91
2022-08-22T11:08:49.009Z,48.87
2022-08-22T11:11:32.941Z,47.50
2022-08-22T11:14:37.196Z,48.37
2022-08-22T11:17:30.917Z,50.09
2022-08-22T11:20:19.438Z,44.95
2022-08-22T11:23:37.554Z,45.38
2022-08-22T11:26:33.737Z,46.24
2022-08-22T11:29:26.697Z,46.35
2022-08-22T11:32:32.146Z,48.02
2022-08-22T11:35:01.461Z,48.07
2022-08-22T11:37:43.266Z,46.68
2022-08-22T11:40:32.301Z,45.01
2022-08-22T11:43:32.755Z,46.21
2022-08-22T11:46:14.069Z,45.02
2022-08-22T11:49:10.845Z,44.94
2022-08-22T11:51:49.732Z,44.69
2022-08-22T11:54:42.286Z,42.92
2022-08-22T11:57:20.689Z,42.97
2022-08-22T12:00:13.058Z,42.56
2022-08-22T12:02:57.611Z,41.62
2022-08-22T12:05:32.959Z,41.44
2022-08-22T12:08:21.268Z,42.62
2022-08-22T12:11:08.389Z,43.58
2022-08-22T12:14:06.593Z,42.29
2022-08-22T12:16:42.606Z,46.03
2022-08-22T12:19:17.766Z,45.90
2022-08-22T12:21:49.701Z,46.76
2022-08-22T12:24:22.579Z,45.97
2022-08-22T12:27:06.520Z,46.43
2022-08-22T12:29:59.800Z,43.93
2022-08-22T12:32:45.796Z,45.65
2022-08-22T12:35:29.698Z,45.14
2022-08-22T12:38:27.894Z,45.21
2022-08-22T12:41:35.410Z,46.60
2022-08-22T12:44:02.148Z,45.68
2022-08-22T12:46:57.293Z,44.13
2022-08-22T12:49:45.010Z,43.68
2022-08-22T12:52:28.222Z,44.04
2022-08-22T12:55:04.104Z,43.65
2022-08-22T12:57:59.380Z,43.04
2022-08-22T13:00:34.885Z,42.63
2022-08-22T13:03:32.143Z,42.95
2022-08-22T13:06:05.363Z,43.62
2022-08-22T13:08:40.390Z,42.86
2022-08-22T13:11:22.256Z,44.89
2022-08-22T13:13:56.410Z,45.51
2022-08-22T13:16:26.525Z,47.08
2022-08-22T13:18:57.695Z,46.23
2022-08-22T13:21:36.039Z,48.00
2022-08-22T13:24:38.744Z,47.22
2022-08-22T13:27:15.778Z,45.81
2022-08-22T13:29:51.516Z,45.82
2022-08-22T13:32:26.358Z,43.70
2022-08-22T13:34:57.158Z,45.77
2022-08-22T13:37:44.363Z,45.21
2022-08-22T13:40:21.750Z,45.08
2022-08-22T13:42:54.564Z,45.50
2022-08-22T13:45:29.329Z,45.40
2022-08-22T13:48:03.794Z,45.37
2022-08-22T13:50:37.459Z,45.17
2022-08-22T13:53:39.095Z,44.29
2022-08-22T13:56:15.618Z,45.18
2022-08-22T13:58:50.221Z,44.30
2022-08-22T14:01:25.542Z,44.71
2022-08-22T14:04:32.313Z,44.58
2022-08-22T14:07:03.365Z,44.12
2022-08-22T14:09:49.157Z,45.32
2022-08-22T14:12:56.464Z,43.94
2022-08-22T14:15:32.273Z,45.52
2022-08-22T14:18:15.889Z,46.30
2022-08-22T14:20:47.518Z,46.38
2022-08-22T14:23:27.035Z,48.23
2022-08-22T14:25:55.537Z,47.02
2022-08-22T14:28:31.332Z,45.38
2022-08-22T14:31:14.320Z,47.77
2022-08-22T14:33:52.763Z,46.16
2022-08-22T14:36:23.608Z,48.53
2022-08-22T14:39:02.311Z,48.69
2022-08-22T14:41:55.653Z,46.77
2022-08-22T14:44:52.764Z,48.30
2022-08-22T14:48:09.999Z,49.38
2022-08-22T14:50:43.621Z,48.86
2022-08-22T14:53:25.020Z,48.28
2022-08-22T14:55:58.101Z,48.92
2022-08-22T14:58:26.230Z,48.81
2022-08-22T15:00:56.620Z,50.44
2022-08-22T15:03:29.711Z,49.37
2022-08-22T15:06:01.606Z,49.65
2022-08-22T15:08:49.892Z,50.02
2022-08-22T15:11:22.476Z,50.72
2022-08-22T15:14:12.535Z,50.85
2022-08-22T15:16:57.099Z,50.08
2022-08-22T15:19:33.024Z,50.08
2022-08-22T15:22:15.079Z,49.89
2022-08-22T15:24:47.433Z,51.30
2022-08-22T15:27:19.526Z,49.85
2022-08-22T15:29:55.579Z,50.95
2022-08-22T15:32:27.820Z,51.88
2022-08-22T15:35:13.871Z,51.21
2022-08-22T15:38:05.263Z,48.47
2022-08-22T15:40:35.056Z,50.41
2022-08-22T15:43:22.627Z,51.13
2022-08-22T15:46:07.153Z,50.99
2022-08-22T15:48:39.157Z,51.74
2022-08-22T15:51:13.531Z,53.42
2022-08-22T15:54:03.368Z,51.05
2022-08-22T15:57:18.517Z,51.89
2022-08-22T15:59:54.037Z,53.31
2022-08-22T16:02:34.887Z,54.56
2022-08-22T16:05:22.354Z,52.68
2022-08-22T16:07:58.254Z,55.61
2022-08-22T16:10:24.938Z,51.60
2022-08-22T16:13:13.697Z,52.21
2022-08-22T16:15:54.387Z,53.09
2022-08-22T16:18:37.104Z,51.94
2022-08-22T16:21:11.172Z,52.69
2022-08-22T16:23:49.937Z,54.04
2022-08-22T16:26:28.700Z,53.76
2022-08-22T16:29:14.781Z,53.47
2022-08-22T16:31:44.532Z,53.73
2022-08-22T16:34:17.411Z,53.96
2022-08-22T16:36:47.268Z,54.85
2022-08-22T16:39:23.110Z,54.16
2022-08-22T16:42:22.329Z,56.64
2022-08-22T16:44:50.187Z,55.12
2022-08-22T16:47:43.038Z,56.00
2022-08-22T16:50:20.995Z,55.99
2022-08-22T16:53:08.993Z,57.27
2022-08-22T16:55:58.395Z,56.73
2022-08-22T16:59:06.046Z,57.37
2022-08-22T17:02:07.116Z,55.81
2022-08-22T17:04:56.808Z,56.46
2022-08-22T17:07:57.267Z,56.07
2022-08-22T17:10:34.214Z,55.51
2022-08-22T17:13:06.888Z,56.50
2022-08-22T17:16:02.030Z,57.30
2022-08-22T17:18:31.582Z,55.06
2022-08-22T17:21:51.661Z,55.69
2022-08-22T17:24:40.732Z,55.17
2022-08-22T17:27:16.095Z,57.73
2022-08-22T17:30:07.191Z,56.63
2022-08-22T17:32:44.520Z,56.92
2022-08-22T17:35:24.946Z,58.13
2022-08-22T17:38:17.191Z,58.95
2022-08-22T17:41:01.833Z,58.55
2022-08-22T17:43:58.505Z,58.76
2022-08-22T17:46:31.076Z,61.01
2022-08-22T17:49:16.561Z,59.27
2022-08-22T17:51:55.007Z,60.89
2022-08-22T17:54:33.148Z,60.57
2022-08-22T17:57:05.716Z,61.71
2022-08-22T17:59:51.330Z,60.50
2022-08-22T18:02:42.806Z,62.12
2022-08-22T18:05:28.580Z,64.46
2022-08-22T18:11:40.190Z,64.63
2022-08-22T18:14:13.144Z,65.16
2022-08-22T18:16:47.180Z,65.43
2022-08-22T18:19:44.393Z,66.57
2022-08-22T18:22:22.329Z,65.50
2022-08-22T18:25:01.104Z,66.17
2022-08-22T18:27:38.397Z,66.25
2022-08-22T18:30:20.439Z,66.60
2022-08-22T18:33:01.961Z,66.01
2022-08-22T18:35:39.563Z,65.43
2022-08-22T18:38:20.006Z,67.95
2022-08-22T18:40:57.301Z,66.82
2022-08-22T18:43:40.112Z,66.37
2022-08-22T18:46:26.625Z,67.09
2022-08-22T18:49:14.102Z,67.32
2022-08-22T18:51:41.719Z,66.95
2022-08-22T18:54:08.295Z,67.21
2022-08-22T18:56:49.916Z,66.93
2022-08-22T18:59:40.815Z,67.03
2022-08-22T19:02:42.162Z,67.28
2022-08-22T19:05:33.980Z,66.69
2022-08-22T19:08:01.003Z,68.92
2022-08-22T19:11:05.154Z,67.62
2022-08-22T19:13:37.983Z,68.20
2022-08-22T19:16:41.926Z,67.77
2022-08-22T19:19:17.665Z,68.47
2022-08-22T19:22:23.388Z,69.19
2022-08-22T19:25:19.400Z,70.77
2022-08-22T19:28:08.964Z,70.97
2022-08-22T19:30:52.513Z,71.38
2022-08-22T19:33:34.653Z,72.59
2022-08-22T19:36:31.326Z,72.88
2022-08-22T19:38:58.040Z,74.07
2022-08-22T19:41:43.809Z,73.16
2022-08-22T19:44:20.808Z,74.73
2022-08-22T19:47:03.285Z,76.90
2022-08-22T19:49:37.639Z,73.98
2022-08-22T19:52:12.114Z,73.70
2022-08-22T19:54:57.211Z,75.48
2022-08-22T19:57:54.037Z,75.47
2022-08-22T20:00:42.698Z,74.95
2022-08-22T20:03:19.018Z,76.25
2022-08-22T20:06:40.847Z,75.80
2022-08-22T20:09:25.601Z,75.03
2022-08-22T20:12:13.251Z,76.67
2022-08-22T20:14:44.572Z,75.87
2022-08-22T20:17:11.236Z,76.16
2022-08-22T20:19:41.011Z,76.79
2022-08-22T20:22:18.074Z,74.85
2022-08-22T20:24:50.702Z,75.43
2022-08-22T20:27:22.874Z,75.83
2022-08-22T20:30:03.500Z,75.14
2022-08-22T20:32:37.959Z,74.81
2022-08-22T20:35:06.405Z,74.60
2022-08-22T20:38:05.139Z,75.41
2022-08-22T20:40:54.681Z,75.74
2022-08-22T20:43:52.175Z,74.26
2022-08-22T20:46:46.291Z,76.02
2022-08-22T20:49:26.168Z,75.88
2022-08-22T20:51:54.918Z,76.39
2022-08-22T20:54:25.197Z,75.11
2022-08-22T20:56:56.055Z,74.31
2022-08-22T20:59:41.862Z,75.32
2022-08-22T21:02:15.142Z,75.05
2022-08-22T21:04:48.260Z,75.13
2022-08-22T21:07:29.237Z,76.70
2022-08-22T21:10:22.642Z,76.66
2022-08-22T21:13:11.304Z,76.25
2022-08-22T21:15:44.658Z,76.58
2022-08-22T21:18:14.205Z,76.53
2022-08-22T21:20:42.030Z,76.21
2022-08-22T21:23:15.581Z,77.40
2022-08-22T21:26:01.509Z,78.49
2022-08-22T21:28:32.272Z,77.35
2022-08-22T21:31:07.739Z,78.75
2022-08-22T21:33:34.789Z,79.36
2022-08-22T21:36:02.556Z,78.70
2022-08-22T21:38:29.465Z,79.16
2022-08-22T21:41:02.091Z,79.63
2022-08-22T21:43:36.953Z,80.66
2022-08-22T21:46:06.165Z,80.71
2022-08-22T21:48:40.878Z,82.73
2022-08-22T21:51:28.465Z,82.20
2022-08-22T21:54:20.077Z,83.24
2022-08-22T21:56:48.289Z,84.07
2022-08-22T21:59:49.312Z,85.62
2022-08-22T22:02:39.671Z,86.80
2022-08-22T22:05:17.856Z,87.80
2022-08-22T22:07:46.880Z,88.63
2022-08-22T22:10:17.405Z,89.49
2022-08-22T22:12:47.269Z,90.34
2022-08-22T22:15:18.041Z,90.57
2022-08-22T22:17:45.253Z,90.40
2022-08-22T22:20:15.906Z,90.82
2022-08-22T22:22:45.900Z,91.53
2022-08-22T22:25:41.291Z,93.30
2022-08-22T22:28:22.055Z,94.09
2022-08-22T22:30:51.523Z,95.26
2022-08-22T22:33:22.405Z,96.15
2022-08-22T22:35:50.833Z,96.06
2022-08-22T22:38:21.973Z,96.79
2022-08-22T22:40:50.981Z,98.33
2022-08-22T22:43:17.698Z,98.68
2022-08-22T22:45:44.551Z,99.24
2022-08-22T22:48:11.757Z,99.52
2022-08-22T22:50:44.997Z,99.90
2022-08-22T22:53:12.197Z,100.00
2022-08-22T22:56:00.271Z,100.00
2022-08-22T22:58:28.663Z,100.00
2022-08-22T23:00:56.045Z,100.00
2022-08-22T23:03:23.597Z,100.00
2022-08-22T23:05:50.563Z,100.00
2022-08-22T23:08:18.127Z,100.00
2022-08-22T23:10:44.746Z,100.00
2022-08-22T23:13:11.490Z,100.00
2022-08-22T23:15:38.195Z,100.00
2022-08-22T23:18:04.941Z,100.00
2022-08-22T23:20:31.857Z,100.00
2022-08-22T23:22:59.710Z,100.00
2022-08-22T23:25:27.084Z,100.00
2022-08-22T23:27:54.459Z,100.00
2022-08-22T23:30:22.252Z,100.00
2022-08-22T23:32:49.078Z,100.00
2022-08-22T23:35:15.961Z,100.00
2022-08-22T23:37:42.639Z,100.00
2022-08-22T23:40:10.333Z,100.00
2022-08-22T23:42:37.071Z,100.00
2022-08-22T23:45:04.554Z,100.00
2022-08-22T23:47:31.362Z,100.00
2022-08-22T23:49:58.122Z,100.00
2022-08-22T23:52:25.703Z,100.00
2022-08-22T23:54:55.643Z,100.00
2022-08-22T23:57:26.293Z,100.00
2022-08-22T23:59:57.489Z,100.00
